sensor_id;sensor_type;location;lat;lon;timestamp;pressure;altitude;pressure_sealevel;temperature;humidity
69971;BME280;57301;50.328;8.542;2024-01-25T00:01:50;99474.91;;;7.46;76.14
69971;BME280;57301;50.328;8.542;2024-01-25T00:04:17;99474.47;;;7.52;76.13
69971;BME280;57301;50.328;8.542;2024-01-25T00:06:43;99467.13;;;7.56;76.02
69971;BME280;57301;50.328;8.542;2024-01-25T00:09:10;99465.53;;;7.53;75.34
69971;BME280;57301;50.328;8.542;2024-01-25T00:11:37;99468.50;;;7.48;76.25
69971;BME280;57301;50.328;8.542;2024-01-25T00:14:03;99468.19;;;7.53;75.97
69971;BME280;57301;50.328;8.542;2024-01-25T00:16:30;99464.81;;;7.51;75.75
69971;BME280;57301;50.328;8.542;2024-01-25T00:18:57;99483.28;;;7.52;75.85
69971;BME280;57301;50.328;8.542;2024-01-25T00:21:24;99485.31;;;7.49;76.17
69971;BME280;57301;50.328;8.542;2024-01-25T00:23:50;99491.13;;;7.54;76.14
69971;BME280;57301;50.328;8.542;2024-01-25T00:26:17;99495.44;;;7.68;75.84
69971;BME280;57301;50.328;8.542;2024-01-25T00:28:43;99490.63;;;7.73;75.47
69971;BME280;57301;50.328;8.542;2024-01-25T00:31:10;99490.03;;;7.69;75.52
69971;BME280;57301;50.328;8.542;2024-01-25T00:33:37;99471.66;;;7.90;74.68
69971;BME280;57301;50.328;8.542;2024-01-25T00:36:04;99487.53;;;7.79;75.22
69971;BME280;57301;50.328;8.542;2024-01-25T00:38:31;99480.38;;;7.92;74.99
69971;BME280;57301;50.328;8.542;2024-01-25T00:40:58;99480.59;;;7.89;74.59
69971;BME280;57301;50.328;8.542;2024-01-25T00:43:24;99484.38;;;7.98;74.36
69971;BME280;57301;50.328;8.542;2024-01-25T00:45:51;99493.63;;;8.05;74.51
69971;BME280;57301;50.328;8.542;2024-01-25T00:48:18;99486.63;;;8.15;74.96
69971;BME280;57301;50.328;8.542;2024-01-25T00:50:45;99486.88;;;8.12;75.83
69971;BME280;57301;50.328;8.542;2024-01-25T00:53:12;99494.16;;;7.97;76.60
69971;BME280;57301;50.328;8.542;2024-01-25T00:55:39;99501.97;;;7.88;76.82
69971;BME280;57301;50.328;8.542;2024-01-25T00:58:07;99503.84;;;7.98;76.61
69971;BME280;57301;50.328;8.542;2024-01-25T01:00:34;99515.59;;;8.07;76.33
69971;BME280;57301;50.328;8.542;2024-01-25T01:03:03;99518.06;;;7.97;76.99
69971;BME280;57301;50.328;8.542;2024-01-25T01:05:31;99518.63;;;7.90;76.71
69971;BME280;57301;50.328;8.542;2024-01-25T01:07:58;99522.19;;;8.01;76.40
69971;BME280;57301;50.328;8.542;2024-01-25T01:10:25;99514.88;;;8.05;76.33
69971;BME280;57301;50.328;8.542;2024-01-25T01:12:51;99515.78;;;8.04;76.18
69971;BME280;57301;50.328;8.542;2024-01-25T01:15:19;99519.03;;;7.96;76.55
69971;BME280;57301;50.328;8.542;2024-01-25T01:17:46;99511.06;;;7.96;75.95
69971;BME280;57301;50.328;8.542;2024-01-25T01:20:13;99511.38;;;7.92;76.81
69971;BME280;57301;50.328;8.542;2024-01-25T01:22:39;99521.53;;;8.11;75.74
69971;BME280;57301;50.328;8.542;2024-01-25T01:25:06;99511.94;;;7.84;76.68
69971;BME280;57301;50.328;8.542;2024-01-25T01:27:33;99515.69;;;7.81;76.62
69971;BME280;57301;50.328;8.542;2024-01-25T01:29:59;99519.78;;;7.86;76.11
69971;BME280;57301;50.328;8.542;2024-01-25T01:32:26;99517.06;;;7.87;76.08
69971;BME280;57301;50.328;8.542;2024-01-25T01:34:52;99521.00;;;7.81;76.25
69971;BME280;57301;50.328;8.542;2024-01-25T01:37:19;99518.47;;;7.80;76.64
69971;BME280;57301;50.328;8.542;2024-01-25T01:39:46;99518.94;;;7.85;76.24
69971;BME280;57301;50.328;8.542;2024-01-25T01:42:12;99522.41;;;7.74;77.30
69971;BME280;57301;50.328;8.542;2024-01-25T01:44:39;99525.88;;;7.88;76.28
69971;BME280;57301;50.328;8.542;2024-01-25T01:47:06;99529.94;;;7.80;76.98
69971;BME280;57301;50.328;8.542;2024-01-25T01:49:33;99526.97;;;7.72;77.15
69971;BME280;57301;50.328;8.542;2024-01-25T01:52:01;99520.19;;;7.68;77.29
69971;BME280;57301;50.328;8.542;2024-01-25T01:54:28;99515.59;;;7.70;77.11
69971;BME280;57301;50.328;8.542;2024-01-25T01:56:55;99526.66;;;7.64;77.81
69971;BME280;57301;50.328;8.542;2024-01-25T01:59:21;99525.53;;;7.56;77.73
69971;BME280;57301;50.328;8.542;2024-01-25T02:01:52;99519.56;;;7.65;77.76
69971;BME280;57301;50.328;8.542;2024-01-25T02:04:19;99520.00;;;7.46;78.29
69971;BME280;57301;50.328;8.542;2024-01-25T02:06:45;99522.19;;;7.65;77.50
69971;BME280;57301;50.328;8.542;2024-01-25T02:09:13;99528.78;;;7.59;77.98
69971;BME280;57301;50.328;8.542;2024-01-25T02:11:39;99516.41;;;7.47;78.22
69971;BME280;57301;50.328;8.542;2024-01-25T02:14:06;99534.44;;;7.42;78.86
69971;BME280;57301;50.328;8.542;2024-01-25T02:16:36;99546.97;;;7.52;78.25
69971;BME280;57301;50.328;8.542;2024-01-25T02:19:04;99543.13;;;7.69;78.20
69971;BME280;57301;50.328;8.542;2024-01-25T02:21:30;99531.41;;;7.72;77.79
69971;BME280;57301;50.328;8.542;2024-01-25T02:23:57;99525.09;;;7.62;78.48
69971;BME280;57301;50.328;8.542;2024-01-25T02:26:24;99529.72;;;7.71;78.21
69971;BME280;57301;50.328;8.542;2024-01-25T02:28:50;99539.69;;;7.80;78.39
69971;BME280;57301;50.328;8.542;2024-01-25T02:31:20;99529.56;;;7.85;77.62
69971;BME280;57301;50.328;8.542;2024-01-25T02:33:47;99532.66;;;7.79;78.22
69971;BME280;57301;50.328;8.542;2024-01-25T02:36:14;99537.78;;;7.82;78.63
69971;BME280;57301;50.328;8.542;2024-01-25T02:38:40;99543.41;;;7.77;78.03
69971;BME280;57301;50.328;8.542;2024-01-25T02:41:07;99537.38;;;7.75;78.79
69971;BME280;57301;50.328;8.542;2024-01-25T02:43:33;99538.75;;;7.81;78.53
69971;BME280;57301;50.328;8.542;2024-01-25T02:46:00;99526.91;;;7.85;77.94
69971;BME280;57301;50.328;8.542;2024-01-25T02:48:26;99535.47;;;8.01;77.06
69971;BME280;57301;50.328;8.542;2024-01-25T02:50:53;99532.63;;;7.92;77.60
69971;BME280;57301;50.328;8.542;2024-01-25T02:53:19;99539.63;;;8.05;77.63
69971;BME280;57301;50.328;8.542;2024-01-25T02:55:46;99543.56;;;8.00;77.92
69971;BME280;57301;50.328;8.542;2024-01-25T02:58:12;99531.78;;;7.91;78.20
69971;BME280;57301;50.328;8.542;2024-01-25T03:00:39;99529.03;;;7.93;78.96
69971;BME280;57301;50.328;8.542;2024-01-25T03:03:05;99531.00;;;8.02;78.49
69971;BME280;57301;50.328;8.542;2024-01-25T03:05:32;99538.00;;;8.03;78.47
69971;BME280;57301;50.328;8.542;2024-01-25T03:07:59;99539.69;;;7.80;79.34
69971;BME280;57301;50.328;8.542;2024-01-25T03:10:25;99544.66;;;7.85;79.77
69971;BME280;57301;50.328;8.542;2024-01-25T03:12:52;99549.25;;;7.82;79.65
69971;BME280;57301;50.328;8.542;2024-01-25T03:15:18;99559.34;;;7.77;79.91
69971;BME280;57301;50.328;8.542;2024-01-25T03:17:45;99548.19;;;7.72;79.61
69971;BME280;57301;50.328;8.542;2024-01-25T03:20:11;99564.50;;;7.92;78.73
69971;BME280;57301;50.328;8.542;2024-01-25T03:22:38;99573.28;;;7.68;79.78
69971;BME280;57301;50.328;8.542;2024-01-25T03:25:05;99574.81;;;7.96;78.71
69971;BME280;57301;50.328;8.542;2024-01-25T03:27:32;99582.47;;;7.88;79.14
69971;BME280;57301;50.328;8.542;2024-01-25T03:29:58;99579.81;;;7.88;79.19
69971;BME280;57301;50.328;8.542;2024-01-25T03:32:25;99580.63;;;8.01;78.68
69971;BME280;57301;50.328;8.542;2024-01-25T03:34:52;99586.38;;;7.95;78.85
69971;BME280;57301;50.328;8.542;2024-01-25T03:37:18;99585.91;;;8.14;78.40
69971;BME280;57301;50.328;8.542;2024-01-25T03:39:45;99583.84;;;7.94;78.30
69971;BME280;57301;50.328;8.542;2024-01-25T03:42:11;99584.84;;;7.80;78.46
69971;BME280;57301;50.328;8.542;2024-01-25T03:44:38;99585.03;;;7.77;78.85
69971;BME280;57301;50.328;8.542;2024-01-25T03:47:04;99599.47;;;7.73;78.83
69971;BME280;57301;50.328;8.542;2024-01-25T03:49:32;99597.28;;;7.54;79.14
69971;BME280;57301;50.328;8.542;2024-01-25T03:51:58;99582.00;;;7.58;79.22
69971;BME280;57301;50.328;8.542;2024-01-25T03:54:25;99580.50;;;7.53;79.57
69971;BME280;57301;50.328;8.542;2024-01-25T03:56:52;99586.91;;;7.51;79.55
69971;BME280;57301;50.328;8.542;2024-01-25T03:59:18;99583.94;;;7.43;79.38
69971;BME280;57301;50.328;8.542;2024-01-25T04:01:46;99577.03;;;7.27;79.65
69971;BME280;57301;50.328;8.542;2024-01-25T04:04:16;99577.88;;;7.15;80.57
69971;BME280;57301;50.328;8.542;2024-01-25T04:06:44;99583.91;;;7.05;80.88
69971;BME280;57301;50.328;8.542;2024-01-25T04:09:12;99584.13;;;7.02;81.64
69971;BME280;57301;50.328;8.542;2024-01-25T04:11:38;99588.34;;;7.04;81.15
69971;BME280;57301;50.328;8.542;2024-01-25T04:14:05;99584.13;;;7.02;80.55
69971;BME280;57301;50.328;8.542;2024-01-25T04:16:33;99590.91;;;7.06;80.74
69971;BME280;57301;50.328;8.542;2024-01-25T04:18:59;99598.84;;;7.06;80.50
69971;BME280;57301;50.328;8.542;2024-01-25T04:21:27;99603.81;;;6.85;81.28
69971;BME280;57301;50.328;8.542;2024-01-25T04:23:54;99600.88;;;7.02;80.57
69971;BME280;57301;50.328;8.542;2024-01-25T04:26:20;99606.31;;;7.13;79.58
69971;BME280;57301;50.328;8.542;2024-01-25T04:28:47;99606.59;;;6.96;81.29
69971;BME280;57301;50.328;8.542;2024-01-25T04:31:13;99618.81;;;7.11;80.35
69971;BME280;57301;50.328;8.542;2024-01-25T04:33:40;99619.56;;;7.00;80.85
69971;BME280;57301;50.328;8.542;2024-01-25T04:36:12;99617.00;;;7.12;80.66
69971;BME280;57301;50.328;8.542;2024-01-25T04:38:38;99615.66;;;7.32;79.80
69971;BME280;57301;50.328;8.542;2024-01-25T04:41:05;99615.13;;;7.26;79.97
69971;BME280;57301;50.328;8.542;2024-01-25T04:43:35;99618.81;;;7.11;80.66
69971;BME280;57301;50.328;8.542;2024-01-25T04:46:04;99622.53;;;7.21;80.47
69971;BME280;57301;50.328;8.542;2024-01-25T04:48:31;99632.84;;;7.13;80.73
69971;BME280;57301;50.328;8.542;2024-01-25T04:50:59;99648.22;;;7.21;80.69
69971;BME280;57301;50.328;8.542;2024-01-25T04:53:26;99648.66;;;7.27;80.07
69971;BME280;57301;50.328;8.542;2024-01-25T04:55:55;99656.63;;;7.40;79.47
69971;BME280;57301;50.328;8.542;2024-01-25T04:58:23;99653.13;;;7.40;80.10
69971;BME280;57301;50.328;8.542;2024-01-25T05:00:49;99652.16;;;7.41;80.05
69971;BME280;57301;50.328;8.542;2024-01-25T05:03:18;99650.16;;;7.44;80.12
69971;BME280;57301;50.328;8.542;2024-01-25T05:05:45;99640.41;;;7.45;79.73
69971;BME280;57301;50.328;8.542;2024-01-25T05:08:11;99647.72;;;7.41;79.86
69971;BME280;57301;50.328;8.542;2024-01-25T05:10:38;99643.47;;;7.26;80.38
69971;BME280;57301;50.328;8.542;2024-01-25T05:13:05;99651.28;;;7.15;81.11
69971;BME280;57301;50.328;8.542;2024-01-25T05:15:31;99656.63;;;7.27;80.88
69971;BME280;57301;50.328;8.542;2024-01-25T05:17:58;99664.13;;;7.08;81.11
69971;BME280;57301;50.328;8.542;2024-01-25T05:20:25;99667.44;;;7.24;80.30
69971;BME280;57301;50.328;8.542;2024-01-25T05:22:59;99670.19;;;7.36;79.41
69971;BME280;57301;50.328;8.542;2024-01-25T05:25:25;99672.53;;;7.27;80.05
69971;BME280;57301;50.328;8.542;2024-01-25T05:27:56;99659.84;;;7.06;81.25
69971;BME280;57301;50.328;8.542;2024-01-25T05:30:24;99657.13;;;7.07;81.18
69971;BME280;57301;50.328;8.542;2024-01-25T05:32:51;99665.84;;;7.22;80.66
69971;BME280;57301;50.328;8.542;2024-01-25T05:35:20;99674.22;;;7.16;80.78
69971;BME280;57301;50.328;8.542;2024-01-25T05:37:46;99668.06;;;7.28;80.30
69971;BME280;57301;50.328;8.542;2024-01-25T05:40:13;99679.22;;;7.33;79.99
69971;BME280;57301;50.328;8.542;2024-01-25T05:42:39;99676.44;;;7.22;79.98
69971;BME280;57301;50.328;8.542;2024-01-25T05:45:09;99677.28;;;7.22;80.14
69971;BME280;57301;50.328;8.542;2024-01-25T05:47:36;99681.16;;;7.31;80.38
69971;BME280;57301;50.328;8.542;2024-01-25T05:50:03;99690.63;;;7.08;80.28
69971;BME280;57301;50.328;8.542;2024-01-25T05:52:31;99687.47;;;7.16;80.25
69971;BME280;57301;50.328;8.542;2024-01-25T05:54:58;99686.31;;;7.20;79.84
69971;BME280;57301;50.328;8.542;2024-01-25T05:57:29;99677.09;;;7.13;80.36
69971;BME280;57301;50.328;8.542;2024-01-25T05:59:55;99675.28;;;7.13;81.71
69971;BME280;57301;50.328;8.542;2024-01-25T06:02:22;99677.16;;;7.11;80.76
69971;BME280;57301;50.328;8.542;2024-01-25T06:04:49;99685.81;;;7.27;80.06
69971;BME280;57301;50.328;8.542;2024-01-25T06:07:15;99687.59;;;7.27;79.16
69971;BME280;57301;50.328;8.542;2024-01-25T06:09:42;99689.41;;;7.26;79.66
69971;BME280;57301;50.328;8.542;2024-01-25T06:12:09;99700.03;;;7.26;79.92
69971;BME280;57301;50.328;8.542;2024-01-25T06:14:35;99701.47;;;7.18;79.53
69971;BME280;57301;50.328;8.542;2024-01-25T06:17:02;99696.91;;;7.07;80.38
69971;BME280;57301;50.328;8.542;2024-01-25T06:19:29;99694.50;;;6.90;80.41
69971;BME280;57301;50.328;8.542;2024-01-25T06:21:56;99696.06;;;6.80;81.98
69971;BME280;57301;50.328;8.542;2024-01-25T06:24:22;99689.53;;;6.98;80.86
69971;BME280;57301;50.328;8.542;2024-01-25T06:26:49;99691.97;;;6.88;81.55
69971;BME280;57301;50.328;8.542;2024-01-25T06:29:16;99692.19;;;6.98;81.38
69971;BME280;57301;50.328;8.542;2024-01-25T06:31:43;99697.09;;;7.04;80.88
69971;BME280;57301;50.328;8.542;2024-01-25T06:34:10;99689.34;;;7.01;80.49
69971;BME280;57301;50.328;8.542;2024-01-25T06:36:37;99699.78;;;6.77;81.05
69971;BME280;57301;50.328;8.542;2024-01-25T06:39:04;99687.03;;;6.69;81.46
69971;BME280;57301;50.328;8.542;2024-01-25T06:41:31;99690.38;;;6.59;81.94
69971;BME280;57301;50.328;8.542;2024-01-25T06:43:57;99692.56;;;6.38;83.08
69971;BME280;57301;50.328;8.542;2024-01-25T06:46:24;99688.22;;;6.37;83.07
69971;BME280;57301;50.328;8.542;2024-01-25T06:48:51;99691.00;;;6.21;84.06
69971;BME280;57301;50.328;8.542;2024-01-25T06:51:18;99691.53;;;6.40;82.71
69971;BME280;57301;50.328;8.542;2024-01-25T06:53:44;99700.84;;;6.33;83.38
69971;BME280;57301;50.328;8.542;2024-01-25T06:56:11;99699.59;;;6.39;82.56
69971;BME280;57301;50.328;8.542;2024-01-25T06:58:37;99705.53;;;6.42;82.18
69971;BME280;57301;50.328;8.542;2024-01-25T07:01:05;99708.09;;;6.30;82.31
69971;BME280;57301;50.328;8.542;2024-01-25T07:03:32;99712.19;;;6.21;82.89
69971;BME280;57301;50.328;8.542;2024-01-25T07:05:59;99707.47;;;6.26;82.42
69971;BME280;57301;50.328;8.542;2024-01-25T07:08:25;99722.13;;;6.17;83.93
69971;BME280;57301;50.328;8.542;2024-01-25T07:10:52;99724.97;;;6.14;83.77
69971;BME280;57301;50.328;8.542;2024-01-25T07:13:19;99718.63;;;6.17;83.37
69971;BME280;57301;50.328;8.542;2024-01-25T07:15:47;99718.91;;;6.12;83.84
69971;BME280;57301;50.328;8.542;2024-01-25T07:18:15;99718.53;;;6.04;84.23
69971;BME280;57301;50.328;8.542;2024-01-25T07:20:42;99727.31;;;6.19;84.02
69971;BME280;57301;50.328;8.542;2024-01-25T07:23:08;99726.09;;;6.39;82.73
69971;BME280;57301;50.328;8.542;2024-01-25T07:25:35;99731.56;;;6.36;82.99
69971;BME280;57301;50.328;8.542;2024-01-25T07:28:02;99735.31;;;6.60;82.39
69971;BME280;57301;50.328;8.542;2024-01-25T07:30:28;99729.75;;;6.51;82.97
69971;BME280;57301;50.328;8.542;2024-01-25T07:32:55;99726.16;;;7.06;83.65
69971;BME280;57301;50.328;8.542;2024-01-25T07:35:22;99725.56;;;7.80;80.61
69971;BME280;57301;50.328;8.542;2024-01-25T07:37:50;99724.50;;;7.95;79.62
69971;BME280;57301;50.328;8.542;2024-01-25T07:40:16;99719.38;;;8.30;80.28
69971;BME280;57301;50.328;8.542;2024-01-25T07:42:43;99707.53;;;8.60;77.29
69971;BME280;57301;50.328;8.542;2024-01-25T07:45:10;99710.16;;;8.97;77.20
69971;BME280;57301;50.328;8.542;2024-01-25T07:47:42;99718.84;;;8.75;74.90
69971;BME280;57301;50.328;8.542;2024-01-25T07:50:10;99726.56;;;8.91;75.46
69971;BME280;57301;50.328;8.542;2024-01-25T07:52:37;99733.09;;;8.74;74.78
69971;BME280;57301;50.328;8.542;2024-01-25T07:55:04;99743.00;;;8.72;76.46
69971;BME280;57301;50.328;8.542;2024-01-25T07:57:32;99745.19;;;8.54;75.09
69971;BME280;57301;50.328;8.542;2024-01-25T07:59:59;99751.13;;;8.32;76.07
69971;BME280;57301;50.328;8.542;2024-01-25T08:02:25;99750.78;;;8.62;74.29
69971;BME280;57301;50.328;8.542;2024-01-25T08:04:52;99751.19;;;8.69;74.12
69971;BME280;57301;50.328;8.542;2024-01-25T08:07:20;99757.72;;;9.36;72.35
69971;BME280;57301;50.328;8.542;2024-01-25T08:09:49;99752.00;;;9.30;70.98
69971;BME280;57301;50.328;8.542;2024-01-25T08:12:19;99757.72;;;9.12;72.58
69971;BME280;57301;50.328;8.542;2024-01-25T08:14:45;99752.75;;;9.67;72.39
69971;BME280;57301;50.328;8.542;2024-01-25T08:17:12;99733.31;;;9.89;70.26
69971;BME280;57301;50.328;8.542;2024-01-25T08:19:38;99738.44;;;9.22;70.57
69971;BME280;57301;50.328;8.542;2024-01-25T08:22:06;99736.97;;;8.94;72.23
69971;BME280;57301;50.328;8.542;2024-01-25T08:24:32;99739.16;;;9.24;72.83
69971;BME280;57301;50.328;8.542;2024-01-25T08:26:59;99734.78;;;9.47;71.31
69971;BME280;57301;50.328;8.542;2024-01-25T08:29:25;99741.53;;;9.51;71.76
69971;BME280;57301;50.328;8.542;2024-01-25T08:31:52;99741.03;;;9.81;70.55
69971;BME280;57301;50.328;8.542;2024-01-25T08:34:18;99755.75;;;9.27;71.11
69971;BME280;57301;50.328;8.542;2024-01-25T08:36:45;99764.41;;;9.18;72.20
69971;BME280;57301;50.328;8.542;2024-01-25T08:39:12;99768.72;;;8.84;71.24
69971;BME280;57301;50.328;8.542;2024-01-25T08:41:39;99768.25;;;9.14;71.93
69971;BME280;57301;50.328;8.542;2024-01-25T08:44:07;99773.50;;;9.51;70.79
69971;BME280;57301;50.328;8.542;2024-01-25T08:46:34;99775.84;;;9.07;72.54
69971;BME280;57301;50.328;8.542;2024-01-25T08:49:01;99773.69;;;9.12;71.84
69971;BME280;57301;50.328;8.542;2024-01-25T08:51:34;99767.41;;;9.13;72.38
69971;BME280;57301;50.328;8.542;2024-01-25T08:54:00;99769.72;;;9.42;71.59
69971;BME280;57301;50.328;8.542;2024-01-25T08:56:27;99769.44;;;9.69;71.51
69971;BME280;57301;50.328;8.542;2024-01-25T08:58:54;99763.41;;;9.67;71.28
69971;BME280;57301;50.328;8.542;2024-01-25T09:01:20;99759.44;;;9.84;70.36
69971;BME280;57301;50.328;8.542;2024-01-25T09:03:47;99769.44;;;9.58;69.92
69971;BME280;57301;50.328;8.542;2024-01-25T09:06:14;99767.38;;;9.61;70.45
69971;BME280;57301;50.328;8.542;2024-01-25T09:08:41;99774.53;;;9.13;71.90
69971;BME280;57301;50.328;8.542;2024-01-25T09:11:08;99781.16;;;9.31;71.86
69971;BME280;57301;50.328;8.542;2024-01-25T09:13:35;99775.31;;;9.50;71.83
69971;BME280;57301;50.328;8.542;2024-01-25T09:16:11;99774.72;;;9.47;71.37
69971;BME280;57301;50.328;8.542;2024-01-25T09:18:38;99766.31;;;9.75;70.95
69971;BME280;57301;50.328;8.542;2024-01-25T09:21:05;99771.50;;;9.06;72.37
69971;BME280;57301;50.328;8.542;2024-01-25T09:23:32;99778.44;;;9.44;70.08
69971;BME280;57301;50.328;8.542;2024-01-25T09:25:59;99780.00;;;9.11;71.77
69971;BME280;57301;50.328;8.542;2024-01-25T09:28:26;99779.41;;;8.95;71.63
69971;BME280;57301;50.328;8.542;2024-01-25T09:30:52;99790.81;;;9.21;70.72
69971;BME280;57301;50.328;8.542;2024-01-25T09:33:19;99772.69;;;9.02;71.66
69971;BME280;57301;50.328;8.542;2024-01-25T09:35:47;99781.00;;;8.98;71.60
69971;BME280;57301;50.328;8.542;2024-01-25T09:38:14;99778.41;;;9.09;71.73
69971;BME280;57301;50.328;8.542;2024-01-25T09:40:41;99794.47;;;8.71;73.05
69971;BME280;57301;50.328;8.542;2024-01-25T09:43:08;99790.13;;;9.06;72.05
69971;BME280;57301;50.328;8.542;2024-01-25T09:45:35;99794.03;;;8.77;72.24
69971;BME280;57301;50.328;8.542;2024-01-25T09:48:02;99795.53;;;8.81;72.07
69971;BME280;57301;50.328;8.542;2024-01-25T09:50:31;99810.66;;;9.04;72.50
69971;BME280;57301;50.328;8.542;2024-01-25T09:53:00;99814.19;;;8.55;71.68
69971;BME280;57301;50.328;8.542;2024-01-25T09:55:27;99817.50;;;8.96;71.54
69971;BME280;57301;50.328;8.542;2024-01-25T09:57:54;99811.16;;;9.22;70.83
69971;BME280;57301;50.328;8.542;2024-01-25T10:00:23;99823.81;;;9.19;71.20
69971;BME280;57301;50.328;8.542;2024-01-25T10:02:50;99823.66;;;9.09;70.45
69971;BME280;57301;50.328;8.542;2024-01-25T10:05:17;99819.88;;;8.87;71.10
69971;BME280;57301;50.328;8.542;2024-01-25T10:07:45;99814.63;;;8.99;70.80
69971;BME280;57301;50.328;8.542;2024-01-25T10:10:14;99822.81;;;8.96;71.00
69971;BME280;57301;50.328;8.542;2024-01-25T10:12:42;99820.75;;;9.12;71.10
69971;BME280;57301;50.328;8.542;2024-01-25T10:15:09;99810.00;;;9.13;70.69
69971;BME280;57301;50.328;8.542;2024-01-25T10:17:36;99819.69;;;9.38;69.96
69971;BME280;57301;50.328;8.542;2024-01-25T10:20:23;99812.94;;;8.98;70.88
69971;BME280;57301;50.328;8.542;2024-01-25T10:22:54;99812.56;;;9.15;71.24
69971;BME280;57301;50.328;8.542;2024-01-25T10:25:25;99809.28;;;9.35;70.64
69971;BME280;57301;50.328;8.542;2024-01-25T10:27:52;99806.81;;;9.56;69.52
69971;BME280;57301;50.328;8.542;2024-01-25T10:30:19;99803.19;;;9.57;69.71
69971;BME280;57301;50.328;8.542;2024-01-25T10:32:47;99810.72;;;9.63;68.89
69971;BME280;57301;50.328;8.542;2024-01-25T10:35:15;99810.97;;;10.07;68.41
69971;BME280;57301;50.328;8.542;2024-01-25T10:37:47;99806.44;;;10.31;67.08
69971;BME280;57301;50.328;8.542;2024-01-25T10:40:14;99810.19;;;10.40;67.52
69971;BME280;57301;50.328;8.542;2024-01-25T10:42:42;99808.75;;;10.47;66.85
69971;BME280;57301;50.328;8.542;2024-01-25T10:45:09;99813.97;;;10.37;66.72
69971;BME280;57301;50.328;8.542;2024-01-25T10:47:37;99821.13;;;10.02;65.89
69971;BME280;57301;50.328;8.542;2024-01-25T10:50:04;99820.91;;;10.16;64.68
69971;BME280;57301;50.328;8.542;2024-01-25T10:52:36;99825.34;;;10.28;64.15
69971;BME280;57301;50.328;8.542;2024-01-25T10:55:04;99816.06;;;10.10;65.79
69971;BME280;57301;50.328;8.542;2024-01-25T10:57:39;99812.75;;;10.53;64.14
69971;BME280;57301;50.328;8.542;2024-01-25T11:00:09;99816.25;;;11.73;60.90
69971;BME280;57301;50.328;8.542;2024-01-25T11:02:37;99810.94;;;12.67;57.59
69971;BME280;57301;50.328;8.542;2024-01-25T11:05:17;99799.38;;;12.66;57.34
69971;BME280;57301;50.328;8.542;2024-01-25T11:07:47;99784.56;;;12.62;57.92
69971;BME280;57301;50.328;8.542;2024-01-25T11:10:24;99787.53;;;12.59;57.56
69971;BME280;57301;50.328;8.542;2024-01-25T11:12:58;99790.28;;;12.48;57.14
69971;BME280;57301;50.328;8.542;2024-01-25T11:15:34;99804.91;;;12.44;57.32
69971;BME280;57301;50.328;8.542;2024-01-25T11:18:03;99816.66;;;12.52;57.17
69971;BME280;57301;50.328;8.542;2024-01-25T11:20:34;99803.72;;;13.07;55.73
69971;BME280;57301;50.328;8.542;2024-01-25T11:23:05;99803.84;;;12.04;57.64
69971;BME280;57301;50.328;8.542;2024-01-25T11:25:34;99806.53;;;12.04;57.99
69971;BME280;57301;50.328;8.542;2024-01-25T11:28:03;99813.06;;;12.21;57.70
69971;BME280;57301;50.328;8.542;2024-01-25T11:30:33;99804.69;;;12.05;58.28
69971;BME280;57301;50.328;8.542;2024-01-25T11:33:04;99797.34;;;11.97;57.87
69971;BME280;57301;50.328;8.542;2024-01-25T11:35:32;99791.09;;;11.97;58.36
69971;BME280;57301;50.328;8.542;2024-01-25T11:37:59;99776.94;;;11.32;59.59
69971;BME280;57301;50.328;8.542;2024-01-25T11:40:27;99778.91;;;10.87;59.80
69971;BME280;57301;50.328;8.542;2024-01-25T11:43:04;99775.72;;;10.93;60.38
69971;BME280;57301;50.328;8.542;2024-01-25T11:45:37;99768.00;;;11.22;59.62
69971;BME280;57301;50.328;8.542;2024-01-25T11:48:09;99772.31;;;10.91;59.97
69971;BME280;57301;50.328;8.542;2024-01-25T11:50:36;99775.31;;;11.09;59.42
69971;BME280;57301;50.328;8.542;2024-01-25T11:53:03;99781.44;;;10.88;58.99
69971;BME280;57301;50.328;8.542;2024-01-25T11:55:30;99777.09;;;10.54;59.93
69971;BME280;57301;50.328;8.542;2024-01-25T11:57:56;99775.28;;;10.76;59.55
69971;BME280;57301;50.328;8.542;2024-01-25T12:00:23;99767.66;;;10.38;60.09
69971;BME280;57301;50.328;8.542;2024-01-25T12:02:50;99767.91;;;10.58;59.68
69971;BME280;57301;50.328;8.542;2024-01-25T12:05:17;99760.88;;;10.57;59.60
69971;BME280;57301;50.328;8.542;2024-01-25T12:07:44;99756.88;;;10.62;57.45
69971;BME280;57301;50.328;8.542;2024-01-25T12:10:15;99755.53;;;10.57;58.26
69971;BME280;57301;50.328;8.542;2024-01-25T12:12:43;99750.91;;;10.70;56.99
69971;BME280;57301;50.328;8.542;2024-01-25T12:15:10;99744.78;;;10.90;57.26
69971;BME280;57301;50.328;8.542;2024-01-25T12:17:37;99749.91;;;11.25;56.55
69971;BME280;57301;50.328;8.542;2024-01-25T12:20:06;99744.06;;;10.99;56.72
69971;BME280;57301;50.328;8.542;2024-01-25T12:22:38;99737.13;;;12.03;55.02
69971;BME280;57301;50.328;8.542;2024-01-25T12:25:09;99734.22;;;11.00;55.88
69971;BME280;57301;50.328;8.542;2024-01-25T12:27:40;99721.81;;;10.56;57.68
69971;BME280;57301;50.328;8.542;2024-01-25T12:30:08;99718.88;;;11.13;56.74
69971;BME280;57301;50.328;8.542;2024-01-25T12:32:35;99729.03;;;11.30;56.16
69971;BME280;57301;50.328;8.542;2024-01-25T12:35:01;99720.59;;;11.35;55.75
69971;BME280;57301;50.328;8.542;2024-01-25T12:37:29;99727.19;;;11.31;55.87
69971;BME280;57301;50.328;8.542;2024-01-25T12:39:56;99720.31;;;11.49;55.80
69971;BME280;57301;50.328;8.542;2024-01-25T12:42:23;99728.44;;;11.69;55.45
69971;BME280;57301;50.328;8.542;2024-01-25T12:44:52;99716.97;;;11.78;54.76
69971;BME280;57301;50.328;8.542;2024-01-25T12:47:20;99717.25;;;12.26;53.83
69971;BME280;57301;50.328;8.542;2024-01-25T12:49:47;99714.00;;;12.53;53.42
69971;BME280;57301;50.328;8.542;2024-01-25T12:52:15;99705.97;;;12.53;52.55
69971;BME280;57301;50.328;8.542;2024-01-25T12:54:42;99703.75;;;11.76;53.87
69971;BME280;57301;50.328;8.542;2024-01-25T12:57:09;99695.94;;;11.64;54.76
69971;BME280;57301;50.328;8.542;2024-01-25T12:59:37;99691.91;;;11.48;54.83
69971;BME280;57301;50.328;8.542;2024-01-25T13:02:05;99687.81;;;11.86;54.28
69971;BME280;57301;50.328;8.542;2024-01-25T13:04:33;99693.31;;;12.25;53.78
69971;BME280;57301;50.328;8.542;2024-01-25T13:07:00;99689.47;;;12.58;52.50
69971;BME280;57301;50.328;8.542;2024-01-25T13:09:27;99698.38;;;12.18;53.42
69971;BME280;57301;50.328;8.542;2024-01-25T13:11:54;99690.13;;;12.00;54.25